createdAt,value
2022-12-20T00:02:18.552Z,28.75
2022-12-20T00:04:46.300Z,29.40
2022-12-20T00:07:13.772Z,31.75
2022-12-20T00:09:41.335Z,33.85
2022-12-20T00:12:08.691Z,38.40
2022-12-20T00:14:36.046Z,43.13
2022-12-20T00:17:06.011Z,40.42
2022-12-20T00:19:33.521Z,45.75
2022-12-20T00:22:03.742Z,36.85
2022-12-20T00:24:33.052Z,34.90
2022-12-20T00:27:03.465Z,32.72
2022-12-20T00:29:35.845Z,29.85
2022-12-20T00:32:03.218Z,30.83
2022-12-20T00:34:35.664Z,26.52
2022-12-20T00:37:04.347Z,29.35
2022-12-20T00:39:36.620Z,27.00
2022-12-20T00:42:06.642Z,28.40
2022-12-20T00:44:37.059Z,27.00
2022-12-20T00:47:07.171Z,25.90
2022-12-20T00:49:34.852Z,24.92
2022-12-20T00:52:05.272Z,24.38
2022-12-20T00:54:35.699Z,33.05
2022-12-20T00:57:08.379Z,22.75
2022-12-20T00:59:40.673Z,27.45
2022-12-20T01:02:11.258Z,23.40
2022-12-20T01:04:38.838Z,27.60
2022-12-20T01:07:09.166Z,20.60
2022-12-20T01:09:36.513Z,22.67
2022-12-20T01:12:04.180Z,22.40
2022-12-20T01:14:34.083Z,24.30
2022-12-20T01:17:04.336Z,22.85
2022-12-20T01:19:31.767Z,25.40
2022-12-20T01:22:02.296Z,19.33
2022-12-20T01:24:34.053Z,22.73
2022-12-20T01:27:01.612Z,25.90
2022-12-20T01:29:31.434Z,27.05
2022-12-20T01:31:59.033Z,24.75
2022-12-20T01:34:32.376Z,23.00
2022-12-20T01:37:02.729Z,23.63
2022-12-20T01:39:30.282Z,22.17
2022-12-20T01:41:57.515Z,21.85
2022-12-20T01:44:26.694Z,21.90
2022-12-20T01:46:55.091Z,23.80
2022-12-20T01:49:35.141Z,21.25
2022-12-20T01:52:20.625Z,21.48
2022-12-20T01:55:02.533Z,20.85
2022-12-20T01:57:49.293Z,20.65
2022-12-20T02:00:17.299Z,25.50
2022-12-20T02:02:47.037Z,19.15
2022-12-20T02:05:15.355Z,19.70
2022-12-20T02:07:46.304Z,22.35
2022-12-20T02:10:13.445Z,22.67
2022-12-20T02:12:43.003Z,24.95
2022-12-20T02:15:29.036Z,23.23
2022-12-20T02:18:01.731Z,23.02
2022-12-20T02:21:05.492Z,20.48
2022-12-20T02:24:12.609Z,21.35
2022-12-20T02:26:57.681Z,17.27
2022-12-20T02:29:56.544Z,19.95
2022-12-20T02:32:37.690Z,24.02
2022-12-20T02:35:07.926Z,20.08
2022-12-20T02:37:34.869Z,17.92
2022-12-20T02:40:04.711Z,16.80
2022-12-20T02:42:32.955Z,17.35
2022-12-20T02:45:15.479Z,17.38
2022-12-20T02:47:45.380Z,17.25
2022-12-20T02:50:13.058Z,16.50
2022-12-20T02:52:42.533Z,17.08
2022-12-20T02:55:09.814Z,17.33
2022-12-20T02:57:39.700Z,16.70
2022-12-20T03:00:18.832Z,15.40
2022-12-20T03:03:05.969Z,20.33
2022-12-20T03:05:44.475Z,18.90
2022-12-20T03:08:11.665Z,15.18
2022-12-20T03:10:38.644Z,18.05
2022-12-20T03:13:05.654Z,20.55
2022-12-20T03:15:32.514Z,21.67
2022-12-20T03:17:59.336Z,19.88
2022-12-20T03:20:26.178Z,18.98
2022-12-20T03:22:52.983Z,17.27
2022-12-20T03:25:20.568Z,16.95
2022-12-20T03:27:47.793Z,17.25
2022-12-20T03:30:15.310Z,18.73
2022-12-20T03:32:42.224Z,17.33
2022-12-20T03:35:09.483Z,17.35
2022-12-20T03:37:36.520Z,16.30
2022-12-20T03:40:03.804Z,16.42
2022-12-20T03:42:30.723Z,18.77
2022-12-20T03:44:57.565Z,16.88
2022-12-20T03:47:24.620Z,17.10
2022-12-20T03:49:52.103Z,17.85
2022-12-20T03:55:00.500Z,18.25
2022-12-20T03:57:27.615Z,17.73
2022-12-20T03:59:54.602Z,17.80
2022-12-20T04:02:22.739Z,18.83
2022-12-20T04:04:50.451Z,18.83
2022-12-20T04:07:17.321Z,18.63
2022-12-20T04:09:44.168Z,19.88
2022-12-20T04:12:10.983Z,16.95
2022-12-20T04:14:37.839Z,20.75
2022-12-20T04:17:05.096Z,17.52
2022-12-20T04:19:31.999Z,17.75
2022-12-20T04:22:04.758Z,14.25
2022-12-20T04:24:32.732Z,18.75
2022-12-20T04:26:59.567Z,18.88
2022-12-20T04:29:26.388Z,16.55
2022-12-20T04:31:53.245Z,16.83
2022-12-20T04:34:20.169Z,15.65
2022-12-20T04:36:47.112Z,17.02
2022-12-20T04:39:14.092Z,16.67
2022-12-20T04:41:40.948Z,17.73
2022-12-20T04:44:07.903Z,16.20
2022-12-20T04:46:34.901Z,18.80
2022-12-20T04:49:01.801Z,17.05
2022-12-20T04:51:29.147Z,17.45
2022-12-20T04:53:56.695Z,15.93
2022-12-20T04:56:26.283Z,16.83
2022-12-20T04:58:54.500Z,14.45
2022-12-20T05:01:22.376Z,14.18
2022-12-20T05:03:49.702Z,16.75
2022-12-20T05:06:17.224Z,14.80
2022-12-20T05:08:44.240Z,13.57
2022-12-20T05:11:11.183Z,17.80
2022-12-20T05:13:38.007Z,12.25
2022-12-20T05:16:05.092Z,16.33
2022-12-20T05:18:32.595Z,13.82
2022-12-20T05:21:19.293Z,13.77
2022-12-20T05:24:05.373Z,15.90
2022-12-20T05:26:34.619Z,13.25
2022-12-20T05:29:01.548Z,12.82
2022-12-20T05:31:28.711Z,12.98
2022-12-20T05:33:55.581Z,17.20
2022-12-20T05:36:22.524Z,13.40
2022-12-20T05:38:49.990Z,14.02
2022-12-20T05:41:16.838Z,15.90
2022-12-20T05:43:43.644Z,13.15
2022-12-20T05:46:10.894Z,21.15
2022-12-20T05:48:37.979Z,18.30
2022-12-20T05:51:05.183Z,19.70
2022-12-20T05:53:32.088Z,20.17
2022-12-20T05:55:59.497Z,17.98
2022-12-20T05:58:26.309Z,19.60
2022-12-20T06:00:53.583Z,21.85
2022-12-20T06:03:20.523Z,17.58
2022-12-20T06:05:47.500Z,21.42
2022-12-20T06:08:14.602Z,20.23
2022-12-20T06:10:42.218Z,21.00
2022-12-20T06:13:10.136Z,17.70
2022-12-20T06:15:37.520Z,19.25
2022-12-20T06:18:04.611Z,20.63
2022-12-20T06:20:31.546Z,19.42
2022-12-20T06:22:58.468Z,17.42
2022-12-20T06:25:25.692Z,18.85
2022-12-20T06:27:52.579Z,21.42
2022-12-20T06:30:20.078Z,17.05
2022-12-20T06:32:47.196Z,16.85
2022-12-20T06:35:14.882Z,19.85
2022-12-20T06:37:42.228Z,17.33
2022-12-20T06:40:12.555Z,21.17
2022-12-20T06:42:39.597Z,16.65
2022-12-20T06:45:07.071Z,21.00
2022-12-20T06:47:33.938Z,16.67
2022-12-20T06:50:00.784Z,18.35
2022-12-20T06:52:27.654Z,18.42
2022-12-20T06:54:54.465Z,22.88
2022-12-20T06:57:21.445Z,19.05
2022-12-20T06:59:48.391Z,23.55
2022-12-20T07:02:15.422Z,23.75
2022-12-20T07:04:42.498Z,24.13
2022-12-20T07:07:09.513Z,25.88
2022-12-20T07:09:37.946Z,26.05
2022-12-20T07:12:05.402Z,23.05
2022-12-20T07:14:32.247Z,32.53
2022-12-20T07:16:59.198Z,31.05
2022-12-20T07:19:26.315Z,30.25
2022-12-20T07:21:53.152Z,31.88
2022-12-20T07:24:20.071Z,31.65
2022-12-20T07:26:46.951Z,29.42
2022-12-20T07:29:15.959Z,26.48
2022-12-20T07:31:43.155Z,26.38
2022-12-20T07:34:11.332Z,30.15
2022-12-20T07:36:38.506Z,33.83
2022-12-20T07:39:05.427Z,31.02
2022-12-20T07:41:32.274Z,21.80
2022-12-20T07:43:59.636Z,13.77
2022-12-20T07:46:27.220Z,14.48
2022-12-20T07:48:55.273Z,29.52
2022-12-20T07:51:26.330Z,24.98
2022-12-20T07:53:59.174Z,22.20
2022-12-20T07:56:27.239Z,22.65
2022-12-20T07:58:58.530Z,25.05
2022-12-20T08:01:30.645Z,22.87
2022-12-20T08:06:30.270Z,21.92
2022-12-20T08:09:00.597Z,20.02
2022-12-20T08:11:29.560Z,24.33
2022-12-20T08:13:58.393Z,23.45
2022-12-20T08:16:25.976Z,20.50
2022-12-20T08:18:52.891Z,21.00
2022-12-20T08:21:19.815Z,25.08
2022-12-20T08:23:46.627Z,20.63
2022-12-20T08:26:13.463Z,15.10
2022-12-20T08:28:40.481Z,14.38
2022-12-20T08:31:09.395Z,13.32
2022-12-20T08:33:37.955Z,13.60
2022-12-20T08:36:11.657Z,14.60
2022-12-20T08:38:39.210Z,12.00
2022-12-20T08:41:15.982Z,16.60
2022-12-20T08:43:43.576Z,13.15
2022-12-20T08:46:12.223Z,10.73
2022-12-20T08:48:39.469Z,16.83
2022-12-20T08:51:10.849Z,15.65
2022-12-20T08:53:38.401Z,13.70
2022-12-20T08:56:17.121Z,19.02
2022-12-20T08:58:45.084Z,14.90
2022-12-20T09:01:15.194Z,22.35
2022-12-20T09:03:42.715Z,20.67
2022-12-20T09:06:13.202Z,18.77
2022-12-20T09:08:40.788Z,23.30
2022-12-20T09:11:17.034Z,21.60
2022-12-20T09:13:46.371Z,26.25
2022-12-20T09:16:15.466Z,27.52
2022-12-20T09:18:42.754Z,67.07
2022-12-20T09:21:11.555Z,101.35
2022-12-20T09:23:40.025Z,67.00
2022-12-20T09:26:10.504Z,49.28
2022-12-20T09:28:37.328Z,28.70
2022-12-20T09:31:06.668Z,22.33
2022-12-20T09:33:34.615Z,22.35
2022-12-20T09:36:02.296Z,23.58
2022-12-20T09:38:31.150Z,22.80
2022-12-20T09:41:06.892Z,25.67
2022-12-20T09:43:34.789Z,21.42
2022-12-20T09:46:04.051Z,20.80
2022-12-20T09:48:33.737Z,20.50
2022-12-20T09:51:12.532Z,25.45
2022-12-20T09:59:06.143Z,25.95
2022-12-20T10:01:39.472Z,33.40
2022-12-20T10:04:23.745Z,35.67
2022-12-20T10:07:05.851Z,32.58
2022-12-20T10:10:10.219Z,31.80
2022-12-20T10:13:00.351Z,27.50
2022-12-20T10:15:36.901Z,26.20
2022-12-20T10:18:28.768Z,22.67
2022-12-20T10:21:03.667Z,25.15
2022-12-20T10:23:36.259Z,21.83
2022-12-20T10:26:10.237Z,18.42
2022-12-20T10:28:37.598Z,24.85
2022-12-20T10:31:12.752Z,25.00
2022-12-20T10:33:40.896Z,23.25
2022-12-20T10:36:26.303Z,20.23
2022-12-20T10:39:05.752Z,25.90
2022-12-20T10:41:42.832Z,27.25
2022-12-20T10:44:39.241Z,21.80
2022-12-20T10:47:41.743Z,23.80
2022-12-20T10:50:14.807Z,21.83
2022-12-20T10:52:42.597Z,26.77
2022-12-20T10:55:36.899Z,28.70
2022-12-20T10:58:35.284Z,25.30
2022-12-20T11:01:06.394Z,18.90
2022-12-20T11:03:33.418Z,13.32
2022-12-20T11:06:04.537Z,16.58
2022-12-20T11:08:39.110Z,20.25
2022-12-20T11:11:13.037Z,23.25
2022-12-20T11:13:41.410Z,27.23
2022-12-20T11:16:25.819Z,25.55
2022-12-20T11:19:06.117Z,24.23
2022-12-20T11:21:50.490Z,27.48
2022-12-20T11:24:49.494Z,24.85
2022-12-20T11:27:22.679Z,24.20
2022-12-20T11:29:56.656Z,20.55
2022-12-20T11:32:35.565Z,18.25
2022-12-20T11:35:19.627Z,17.05
2022-12-20T11:38:09.532Z,17.67
2022-12-20T11:40:39.342Z,16.63
2022-12-20T11:43:12.138Z,21.52
2022-12-20T11:45:54.063Z,21.85
2022-12-20T11:48:55.514Z,19.02
2022-12-20T11:51:43.714Z,17.67
2022-12-20T11:54:29.298Z,20.38
2022-12-20T11:57:13.683Z,20.83
2022-12-20T11:59:44.916Z,23.35
2022-12-20T12:02:22.367Z,21.27
2022-12-20T12:05:18.773Z,21.60
2022-12-20T12:07:52.020Z,21.55
2022-12-20T12:10:36.531Z,25.02
2022-12-20T12:13:23.494Z,21.10
2022-12-20T12:16:03.807Z,28.15
2022-12-20T12:18:35.995Z,20.08
2022-12-20T12:24:27.153Z,20.23
2022-12-20T12:26:54.148Z,19.73
2022-12-20T12:29:22.272Z,18.73
2022-12-20T12:32:30.786Z,19.70
2022-12-20T12:35:24.113Z,19.08
2022-12-20T12:38:19.827Z,17.70
2022-12-20T12:40:53.099Z,23.05
2022-12-20T12:43:38.724Z,17.98
2022-12-20T12:46:24.675Z,19.85
2022-12-20T12:48:54.805Z,21.75
2022-12-20T12:51:38.841Z,20.95
2022-12-20T12:54:26.053Z,23.15
2022-12-20T12:56:55.690Z,22.80
2022-12-20T12:59:27.567Z,18.85
2022-12-20T13:01:56.064Z,21.13
2022-12-20T13:04:29.092Z,22.35
2022-12-20T13:07:00.014Z,23.55
2022-12-20T13:09:27.141Z,22.35
2022-12-20T13:12:01.298Z,22.30
2022-12-20T13:14:29.154Z,20.73
2022-12-20T13:17:13.825Z,22.60
2022-12-20T13:19:54.790Z,23.25
2022-12-20T13:22:26.058Z,25.75
2022-12-20T13:24:58.737Z,18.90
2022-12-20T13:27:42.177Z,21.70
2022-12-20T13:30:14.794Z,21.48
2022-12-20T13:32:48.043Z,19.45
2022-12-20T13:35:28.050Z,20.63
2022-12-20T13:38:07.089Z,23.13
2022-12-20T13:40:47.112Z,19.95
2022-12-20T13:43:20.220Z,18.90
2022-12-20T13:45:48.507Z,20.52
2022-12-20T13:48:25.527Z,20.17
2022-12-20T13:50:55.230Z,21.00
2022-12-20T13:53:24.327Z,19.40
2022-12-20T13:55:51.699Z,15.05
2022-12-20T13:58:23.933Z,16.10
2022-12-20T14:03:27.677Z,19.15
2022-12-20T14:06:01.970Z,18.48
2022-12-20T14:08:34.469Z,20.33
2022-12-20T14:11:11.364Z,22.40
2022-12-20T14:13:38.671Z,19.30
2022-12-20T14:16:16.202Z,19.95
2022-12-20T14:18:51.726Z,22.98
2022-12-20T14:21:19.328Z,20.92
2022-12-20T14:23:50.718Z,23.75
2022-12-20T14:26:38.720Z,23.33
2022-12-20T14:29:12.517Z,24.33
2022-12-20T14:31:42.824Z,22.25
2022-12-20T14:34:12.397Z,20.90
2022-12-20T14:36:47.742Z,20.98
2022-12-20T14:39:32.456Z,23.55
2022-12-20T14:42:09.896Z,25.17
2022-12-20T14:44:36.761Z,20.33
2022-12-20T14:47:27.485Z,27.15
2022-12-20T14:50:04.495Z,25.52
2022-12-20T14:52:39.539Z,29.90
2022-12-20T14:55:14.011Z,27.35
2022-12-20T14:57:52.076Z,27.33
2022-12-20T15:00:18.881Z,26.90
2022-12-20T15:02:46.006Z,24.08
2022-12-20T15:05:38.838Z,27.67
2022-12-20T15:08:11.929Z,26.33
2022-12-20T15:10:39.090Z,31.63
2022-12-20T15:13:12.475Z,27.95
2022-12-20T15:15:39.717Z,27.75
2022-12-20T15:18:25.015Z,22.23
2022-12-20T15:21:27.023Z,24.65
2022-12-20T15:23:55.812Z,19.48
2022-12-20T15:26:25.307Z,28.30
2022-12-20T15:28:52.272Z,26.92
2022-12-20T15:31:25.992Z,26.38
2022-12-20T15:33:58.981Z,31.98
2022-12-20T15:36:28.412Z,40.72
2022-12-20T15:39:12.505Z,33.60
2022-12-20T15:41:43.321Z,40.85
2022-12-20T15:44:37.268Z,40.83
2022-12-20T15:47:04.419Z,40.28
2022-12-20T15:49:32.527Z,33.72
2022-12-20T15:51:59.851Z,35.08
2022-12-20T15:56:56.487Z,33.50
2022-12-20T16:02:25.935Z,38.78
2022-12-20T16:04:53.614Z,43.42
2022-12-20T16:07:20.716Z,51.20
2022-12-20T16:09:47.756Z,49.25
2022-12-20T16:12:35.295Z,56.90
2022-12-20T16:15:02.184Z,49.92
2022-12-20T16:17:29.085Z,43.38
2022-12-20T16:19:55.920Z,49.15
2022-12-20T16:22:24.389Z,48.55
2022-12-20T16:24:51.932Z,48.65
2022-12-20T16:27:19.327Z,43.22
2022-12-20T16:29:46.249Z,46.10
2022-12-20T16:32:18.124Z,48.30
2022-12-20T16:34:45.623Z,44.45
2022-12-20T16:37:12.682Z,46.50
2022-12-20T16:39:39.994Z,48.17
2022-12-20T16:42:16.646Z,41.40
2022-12-20T16:44:45.315Z,43.20
2022-12-20T16:47:13.122Z,44.08
2022-12-20T16:49:44.498Z,41.50
2022-12-20T16:52:18.461Z,42.78
2022-12-20T16:54:45.383Z,37.40
2022-12-20T16:57:12.330Z,42.40
2022-12-20T16:59:39.130Z,38.50
2022-12-20T17:02:21.835Z,31.45
2022-12-20T17:04:48.845Z,37.50
2022-12-20T17:07:16.350Z,37.72
2022-12-20T17:09:43.214Z,38.33
2022-12-20T17:12:16.080Z,38.08
2022-12-20T17:14:43.129Z,36.53
2022-12-20T17:17:09.962Z,32.97
2022-12-20T17:19:37.110Z,33.30
2022-12-20T17:24:48.469Z,27.92
2022-12-20T17:27:15.270Z,29.60
2022-12-20T17:29:42.082Z,24.95
2022-12-20T17:32:23.516Z,27.02
2022-12-20T17:34:50.723Z,21.80
2022-12-20T17:37:18.142Z,31.67
2022-12-20T17:39:45.099Z,41.20
2022-12-20T17:42:15.468Z,38.47
2022-12-20T17:44:42.810Z,30.05
2022-12-20T17:47:09.793Z,29.15
2022-12-20T17:49:37.635Z,28.60
2022-12-20T17:52:04.670Z,28.52
2022-12-20T17:54:38.945Z,25.77
2022-12-20T17:57:12.220Z,27.63
2022-12-20T17:59:39.075Z,28.77
2022-12-20T18:02:21.814Z,30.20
2022-12-20T18:04:49.128Z,34.33
2022-12-20T18:07:15.971Z,30.42
2022-12-20T18:09:42.786Z,33.78
2022-12-20T18:12:11.069Z,25.05
2022-12-20T18:14:37.980Z,27.20
2022-12-20T18:17:04.906Z,24.23
2022-12-20T18:19:32.029Z,29.63
2022-12-20T18:22:00.070Z,30.58
2022-12-20T18:24:27.504Z,31.30
2022-12-20T18:26:54.360Z,34.38
2022-12-20T18:29:21.520Z,34.92
2022-12-20T18:31:48.423Z,30.33
2022-12-20T18:34:15.355Z,29.48
2022-12-20T18:36:42.280Z,24.90
2022-12-20T18:39:11.949Z,24.35
2022-12-20T18:41:38.771Z,26.42
2022-12-20T18:44:07.185Z,27.02
2022-12-20T18:46:34.600Z,38.40
2022-12-20T18:49:02.795Z,46.45
2022-12-20T18:51:32.987Z,43.40
2022-12-20T18:54:00.693Z,41.08
2022-12-20T18:56:30.948Z,39.15
2022-12-20T18:59:04.474Z,29.23
2022-12-20T19:01:35.809Z,28.67
2022-12-20T19:04:04.507Z,31.73
2022-12-20T19:06:31.976Z,28.77
2022-12-20T19:09:03.727Z,30.52
2022-12-20T19:11:30.666Z,26.52
2022-12-20T19:13:57.560Z,29.75
2022-12-20T19:16:31.956Z,32.45
2022-12-20T19:19:00.792Z,24.50
2022-12-20T19:21:30.340Z,27.00
2022-12-20T19:23:59.319Z,26.13
2022-12-20T19:26:27.820Z,26.90
2022-12-20T19:28:55.330Z,26.67
2022-12-20T19:31:27.620Z,33.53
2022-12-20T19:34:06.644Z,36.20
2022-12-20T19:36:45.487Z,33.53
2022-12-20T19:39:15.545Z,30.55
2022-12-20T19:41:42.659Z,34.33
2022-12-20T19:44:09.544Z,26.67
2022-12-20T19:46:36.546Z,28.17
2022-12-20T19:49:04.280Z,33.10
2022-12-20T19:51:31.967Z,31.20
2022-12-20T19:53:59.549Z,33.50
2022-12-20T19:56:32.705Z,32.20
2022-12-20T19:59:00.010Z,27.80
2022-12-20T20:01:27.819Z,30.23
2022-12-20T20:03:57.922Z,29.02
2022-12-20T20:06:25.698Z,27.00
2022-12-20T20:08:53.550Z,26.10
2022-12-20T20:11:21.182Z,27.90
2022-12-20T20:13:48.245Z,29.40
2022-12-20T20:16:20.266Z,29.33
2022-12-20T20:18:49.299Z,31.42
2022-12-20T20:21:19.153Z,27.83
2022-12-20T20:23:46.004Z,26.42
2022-12-20T20:26:19.239Z,31.10
2022-12-20T20:28:46.560Z,29.95
2022-12-20T20:31:15.691Z,29.05
2022-12-20T20:33:43.069Z,29.90
2022-12-20T20:36:12.834Z,40.78
2022-12-20T20:38:40.117Z,38.78
2022-12-20T20:41:06.971Z,43.38
2022-12-20T20:43:38.047Z,39.20
2022-12-20T20:46:07.392Z,40.15
2022-12-20T20:48:34.761Z,35.97
2022-12-20T20:51:01.754Z,39.85
2022-12-20T20:53:33.504Z,45.78
2022-12-20T20:56:05.611Z,42.83
2022-12-20T20:58:33.372Z,43.60
2022-12-20T21:01:01.944Z,44.50
2022-12-20T21:03:30.650Z,37.63
2022-12-20T21:08:45.088Z,42.85
2022-12-20T21:11:12.114Z,40.28
2022-12-20T21:13:39.113Z,42.67
2022-12-20T21:16:16.122Z,40.40
2022-12-20T21:18:43.253Z,36.90
2022-12-20T21:21:12.566Z,40.50
2022-12-20T21:23:43.395Z,37.45
2022-12-20T21:26:10.229Z,36.65
2022-12-20T21:28:37.040Z,38.38
2022-12-20T21:31:11.887Z,38.45
2022-12-20T21:33:39.174Z,40.13
2022-12-20T21:36:11.531Z,42.38
2022-12-20T21:38:38.362Z,40.53
2022-12-20T21:41:13.301Z,35.38
2022-12-20T21:43:40.373Z,43.80
2022-12-20T21:46:11.468Z,41.58
2022-12-20T21:48:43.567Z,43.75
2022-12-20T21:51:20.284Z,34.85
2022-12-20T21:53:48.572Z,35.55
2022-12-20T21:56:15.943Z,38.65
2022-12-20T21:58:43.885Z,35.38
2022-12-20T22:01:11.912Z,33.33
2022-12-20T22:03:38.951Z,34.30
2022-12-20T22:06:06.556Z,32.00
2022-12-20T22:08:34.061Z,29.42
2022-12-20T22:11:06.759Z,29.98
2022-12-20T22:13:40.641Z,35.22
2022-12-20T22:16:12.616Z,34.95
2022-12-20T22:18:40.585Z,29.40
2022-12-20T22:21:10.020Z,33.20
2022-12-20T22:23:37.837Z,24.42
2022-12-20T22:26:09.884Z,26.73
2022-12-20T22:28:37.579Z,25.45
2022-12-20T22:31:09.564Z,27.27
2022-12-20T22:33:37.755Z,26.20
2022-12-20T22:36:05.537Z,28.27
2022-12-20T22:38:32.638Z,25.67
2022-12-20T22:41:22.371Z,22.80
2022-12-20T22:43:49.884Z,23.35
2022-12-20T22:46:18.138Z,21.73
2022-12-20T22:48:46.209Z,21.98
2022-12-20T22:51:16.328Z,21.02
2022-12-20T22:53:43.823Z,23.55
2022-12-20T22:56:11.544Z,22.00
2022-12-20T22:58:39.543Z,21.13
2022-12-20T23:01:08.735Z,20.33
2022-12-20T23:03:37.040Z,18.98
2022-12-20T23:06:05.744Z,16.13
2022-12-20T23:08:36.018Z,18.60
2022-12-20T23:11:22.809Z,17.00
2022-12-20T23:14:08.347Z,16.30
2022-12-20T23:16:37.813Z,18.17
2022-12-20T23:19:04.756Z,17.05
2022-12-20T23:21:50.023Z,18.30
2022-12-20T23:24:16.951Z,13.60
2022-12-20T23:26:44.451Z,16.33
2022-12-20T23:29:11.937Z,14.60
2022-12-20T23:31:39.152Z,15.07
2022-12-20T23:34:06.589Z,12.15
2022-12-20T23:36:33.412Z,15.68
2022-12-20T23:39:00.690Z,14.25
2022-12-20T23:41:28.190Z,14.20
2022-12-20T23:43:55.199Z,14.95
2022-12-20T23:46:22.379Z,14.40
2022-12-20T23:48:51.184Z,11.75
2022-12-20T23:51:18.444Z,13.05
2022-12-20T23:53:45.417Z,14.18
2022-12-20T23:56:18.518Z,13.25
2022-12-20T23:58:47.309Z,13.07
